sensor_id;sensor_type;location;lat;lon;timestamp;temperature;humidity
48208;DHT22;33997;53.278;9.708;2022-08-24T00:00:54;20.00;62.20
48208;DHT22;33997;53.278;9.708;2022-08-24T00:03:19;19.90;62.70
48208;DHT22;33997;53.278;9.708;2022-08-24T00:05:45;19.80;62.90
48208;DHT22;33997;53.278;9.708;2022-08-24T00:08:11;19.70;63.80
48208;DHT22;33997;53.278;9.708;2022-08-24T00:10:37;19.60;63.80
48208;DHT22;33997;53.278;9.708;2022-08-24T00:13:02;19.60;64.00
48208;DHT22;33997;53.278;9.708;2022-08-24T00:15:28;19.60;64.50
48208;DHT22;33997;53.278;9.708;2022-08-24T00:17:54;19.50;64.40
48208;DHT22;33997;53.278;9.708;2022-08-24T00:20:19;19.40;64.80
48208;DHT22;33997;53.278;9.708;2022-08-24T00:22:45;19.50;64.90
48208;DHT22;33997;53.278;9.708;2022-08-24T00:25:12;19.40;65.00
48208;DHT22;33997;53.278;9.708;2022-08-24T00:27:38;19.30;65.20
48208;DHT22;33997;53.278;9.708;2022-08-24T00:30:06;19.30;65.30
48208;DHT22;33997;53.278;9.708;2022-08-24T00:32:32;19.30;65.20
48208;DHT22;33997;53.278;9.708;2022-08-24T00:34:58;19.20;65.70
48208;DHT22;33997;53.278;9.708;2022-08-24T00:37:24;19.30;66.10
48208;DHT22;33997;53.278;9.708;2022-08-24T00:39:49;19.20;65.70
48208;DHT22;33997;53.278;9.708;2022-08-24T00:42:15;19.10;66.10
48208;DHT22;33997;53.278;9.708;2022-08-24T00:44:40;19.00;66.40
48208;DHT22;33997;53.278;9.708;2022-08-24T00:47:16;19.00;66.70
48208;DHT22;33997;53.278;9.708;2022-08-24T00:49:56;18.90;67.10
48208;DHT22;33997;53.278;9.708;2022-08-24T00:52:26;18.90;67.10
48208;DHT22;33997;53.278;9.708;2022-08-24T00:55:06;18.90;67.40
48208;DHT22;33997;53.278;9.708;2022-08-24T00:57:36;18.80;67.60
48208;DHT22;33997;53.278;9.708;2022-08-24T01:00:13;18.80;67.30
48208;DHT22;33997;53.278;9.708;2022-08-24T01:02:43;18.80;67.60
48208;DHT22;33997;53.278;9.708;2022-08-24T01:05:10;18.80;67.80
48208;DHT22;33997;53.278;9.708;2022-08-24T01:07:39;18.70;67.90
48208;DHT22;33997;53.278;9.708;2022-08-24T01:10:11;18.70;68.10
48208;DHT22;33997;53.278;9.708;2022-08-24T01:12:41;18.70;68.20
48208;DHT22;33997;53.278;9.708;2022-08-24T01:15:08;18.70;68.20
48208;DHT22;33997;53.278;9.708;2022-08-24T01:17:35;18.70;68.40
48208;DHT22;33997;53.278;9.708;2022-08-24T01:20:21;18.60;68.70
48208;DHT22;33997;53.278;9.708;2022-08-24T01:23:10;18.50;68.80
48208;DHT22;33997;53.278;9.708;2022-08-24T01:25:41;18.50;69.10
48208;DHT22;33997;53.278;9.708;2022-08-24T01:28:10;18.60;68.80
48208;DHT22;33997;53.278;9.708;2022-08-24T01:30:37;18.60;68.90
48208;DHT22;33997;53.278;9.708;2022-08-24T01:33:05;18.60;68.70
48208;DHT22;33997;53.278;9.708;2022-08-24T01:35:33;18.60;68.70
48208;DHT22;33997;53.278;9.708;2022-08-24T01:38:01;18.60;68.90
48208;DHT22;33997;53.278;9.708;2022-08-24T01:40:33;18.60;68.80
48208;DHT22;33997;53.278;9.708;2022-08-24T01:43:00;18.60;68.90
48208;DHT22;33997;53.278;9.708;2022-08-24T01:45:28;18.60;69.20
48208;DHT22;33997;53.278;9.708;2022-08-24T01:47:55;18.50;69.30
48208;DHT22;33997;53.278;9.708;2022-08-24T01:50:23;18.50;69.50
48208;DHT22;33997;53.278;9.708;2022-08-24T01:52:49;18.50;69.90
48208;DHT22;33997;53.278;9.708;2022-08-24T01:55:16;18.50;70.10
48208;DHT22;33997;53.278;9.708;2022-08-24T01:57:42;18.40;69.80
48208;DHT22;33997;53.278;9.708;2022-08-24T02:00:11;18.40;70.20
48208;DHT22;33997;53.278;9.708;2022-08-24T02:02:40;18.40;70.30
48208;DHT22;33997;53.278;9.708;2022-08-24T02:05:06;18.40;70.40
48208;DHT22;33997;53.278;9.708;2022-08-24T02:07:32;18.30;70.60
48208;DHT22;33997;53.278;9.708;2022-08-24T02:09:57;18.40;70.40
48208;DHT22;33997;53.278;9.708;2022-08-24T02:12:23;18.30;70.60
48208;DHT22;33997;53.278;9.708;2022-08-24T02:14:49;18.20;70.90
48208;DHT22;33997;53.278;9.708;2022-08-24T02:17:15;18.20;71.00
48208;DHT22;33997;53.278;9.708;2022-08-24T02:19:40;18.20;71.40
48208;DHT22;33997;53.278;9.708;2022-08-24T02:22:06;18.20;71.50
48208;DHT22;33997;53.278;9.708;2022-08-24T02:24:32;18.10;71.70
48208;DHT22;33997;53.278;9.708;2022-08-24T02:26:58;18.10;71.90
48208;DHT22;33997;53.278;9.708;2022-08-24T02:29:25;18.10;72.00
48208;DHT22;33997;53.278;9.708;2022-08-24T02:31:51;18.10;72.10
48208;DHT22;33997;53.278;9.708;2022-08-24T02:34:17;18.20;72.10
48208;DHT22;33997;53.278;9.708;2022-08-24T02:36:42;18.10;72.20
48208;DHT22;33997;53.278;9.708;2022-08-24T02:39:08;18.20;72.40
48208;DHT22;33997;53.278;9.708;2022-08-24T02:41:35;18.10;72.50
48208;DHT22;33997;53.278;9.708;2022-08-24T02:44:02;18.10;72.70
48208;DHT22;33997;53.278;9.708;2022-08-24T02:46:29;18.10;72.80
48208;DHT22;33997;53.278;9.708;2022-08-24T02:48:56;18.00;73.20
48208;DHT22;33997;53.278;9.708;2022-08-24T02:51:33;18.10;73.20
48208;DHT22;33997;53.278;9.708;2022-08-24T02:54:00;18.10;73.30
48208;DHT22;33997;53.278;9.708;2022-08-24T02:56:27;18.00;73.30
48208;DHT22;33997;53.278;9.708;2022-08-24T02:58:58;18.00;73.80
48208;DHT22;33997;53.278;9.708;2022-08-24T03:01:25;18.00;74.00
48208;DHT22;33997;53.278;9.708;2022-08-24T03:03:50;18.00;74.00
48208;DHT22;33997;53.278;9.708;2022-08-24T03:06:17;17.90;74.50
48208;DHT22;33997;53.278;9.708;2022-08-24T03:08:42;17.80;74.50
48208;DHT22;33997;53.278;9.708;2022-08-24T03:11:09;17.80;74.60
48208;DHT22;33997;53.278;9.708;2022-08-24T03:13:35;17.80;74.70
48208;DHT22;33997;53.278;9.708;2022-08-24T03:16:01;17.70;75.10
48208;DHT22;33997;53.278;9.708;2022-08-24T03:18:27;17.60;75.20
48208;DHT22;33997;53.278;9.708;2022-08-24T03:20:54;17.60;75.50
48208;DHT22;33997;53.278;9.708;2022-08-24T03:23:20;17.50;75.70
48208;DHT22;33997;53.278;9.708;2022-08-24T03:25:45;17.50;75.90
48208;DHT22;33997;53.278;9.708;2022-08-24T03:28:11;17.50;76.20
48208;DHT22;33997;53.278;9.708;2022-08-24T03:30:38;17.50;76.30
48208;DHT22;33997;53.278;9.708;2022-08-24T03:33:04;17.50;76.60
48208;DHT22;33997;53.278;9.708;2022-08-24T03:35:30;17.50;76.70
48208;DHT22;33997;53.278;9.708;2022-08-24T03:37:56;17.40;76.90
48208;DHT22;33997;53.278;9.708;2022-08-24T03:40:21;17.30;77.00
48208;DHT22;33997;53.278;9.708;2022-08-24T03:42:48;17.30;77.20
48208;DHT22;33997;53.278;9.708;2022-08-24T03:45:14;17.30;77.30
48208;DHT22;33997;53.278;9.708;2022-08-24T03:47:40;17.20;77.80
48208;DHT22;33997;53.278;9.708;2022-08-24T03:50:07;17.20;78.10
48208;DHT22;33997;53.278;9.708;2022-08-24T03:52:33;17.20;78.10
48208;DHT22;33997;53.278;9.708;2022-08-24T03:55:00;17.10;78.20
48208;DHT22;33997;53.278;9.708;2022-08-24T03:57:25;17.10;78.40
48208;DHT22;33997;53.278;9.708;2022-08-24T03:59:51;17.10;78.60
48208;DHT22;33997;53.278;9.708;2022-08-24T04:02:16;17.10;78.80
48208;DHT22;33997;53.278;9.708;2022-08-24T04:04:42;17.00;79.00
48208;DHT22;33997;53.278;9.708;2022-08-24T04:07:07;17.00;79.30
48208;DHT22;33997;53.278;9.708;2022-08-24T04:09:33;17.00;79.30
48208;DHT22;33997;53.278;9.708;2022-08-24T04:11:59;17.00;79.60
48208;DHT22;33997;53.278;9.708;2022-08-24T04:14:24;17.00;79.70
48208;DHT22;33997;53.278;9.708;2022-08-24T04:16:50;16.90;79.90
48208;DHT22;33997;53.278;9.708;2022-08-24T04:19:15;16.90;80.10
48208;DHT22;33997;53.278;9.708;2022-08-24T04:21:41;16.90;80.00
48208;DHT22;33997;53.278;9.708;2022-08-24T04:24:09;16.90;80.20
48208;DHT22;33997;53.278;9.708;2022-08-24T04:26:37;16.90;80.50
48208;DHT22;33997;53.278;9.708;2022-08-24T04:29:07;16.90;80.40
48208;DHT22;33997;53.278;9.708;2022-08-24T04:31:37;16.90;80.60
48208;DHT22;33997;53.278;9.708;2022-08-24T04:34:03;16.80;80.60
48208;DHT22;33997;53.278;9.708;2022-08-24T04:36:29;16.80;80.90
48208;DHT22;33997;53.278;9.708;2022-08-24T04:38:54;16.80;81.30
48208;DHT22;33997;53.278;9.708;2022-08-24T04:41:20;16.80;81.30
48208;DHT22;33997;53.278;9.708;2022-08-24T04:43:47;16.80;81.50
48208;DHT22;33997;53.278;9.708;2022-08-24T04:46:15;16.80;81.60
48208;DHT22;33997;53.278;9.708;2022-08-24T04:48:44;16.90;81.60
48208;DHT22;33997;53.278;9.708;2022-08-24T04:51:11;16.90;81.60
48208;DHT22;33997;53.278;9.708;2022-08-24T04:53:37;17.00;81.40
48208;DHT22;33997;53.278;9.708;2022-08-24T04:56:03;17.00;81.40
48208;DHT22;33997;53.278;9.708;2022-08-24T04:58:33;17.00;81.50
48208;DHT22;33997;53.278;9.708;2022-08-24T05:00:58;17.00;81.70
48208;DHT22;33997;53.278;9.708;2022-08-24T05:03:24;17.10;81.50
48208;DHT22;33997;53.278;9.708;2022-08-24T05:05:50;17.00;81.70
48208;DHT22;33997;53.278;9.708;2022-08-24T05:08:17;17.10;81.80
48208;DHT22;33997;53.278;9.708;2022-08-24T05:10:45;17.10;81.80
48208;DHT22;33997;53.278;9.708;2022-08-24T05:13:11;17.20;81.70
48208;DHT22;33997;53.278;9.708;2022-08-24T05:15:43;17.20;81.70
48208;DHT22;33997;53.278;9.708;2022-08-24T05:18:10;17.30;81.70
48208;DHT22;33997;53.278;9.708;2022-08-24T05:20:40;17.30;81.60
48208;DHT22;33997;53.278;9.708;2022-08-24T05:23:06;17.30;81.40
48208;DHT22;33997;53.278;9.708;2022-08-24T05:25:31;17.40;81.40
48208;DHT22;33997;53.278;9.708;2022-08-24T05:27:57;17.40;81.30
48208;DHT22;33997;53.278;9.708;2022-08-24T05:30:23;17.50;81.40
48208;DHT22;33997;53.278;9.708;2022-08-24T05:32:48;17.50;81.50
48208;DHT22;33997;53.278;9.708;2022-08-24T05:35:14;17.50;81.60
48208;DHT22;33997;53.278;9.708;2022-08-24T05:37:40;17.50;81.10
48208;DHT22;33997;53.278;9.708;2022-08-24T05:40:10;17.60;80.90
48208;DHT22;33997;53.278;9.708;2022-08-24T05:42:36;17.70;80.80
48208;DHT22;33997;53.278;9.708;2022-08-24T05:45:02;17.70;80.80
48208;DHT22;33997;53.278;9.708;2022-08-24T05:47:28;17.80;80.80
48208;DHT22;33997;53.278;9.708;2022-08-24T05:49:54;17.80;80.50
48208;DHT22;33997;53.278;9.708;2022-08-24T05:52:20;17.80;80.60
48208;DHT22;33997;53.278;9.708;2022-08-24T05:54:57;17.90;80.60
48208;DHT22;33997;53.278;9.708;2022-08-24T05:57:24;18.00;80.50
48208;DHT22;33997;53.278;9.708;2022-08-24T05:59:50;18.00;80.20
48208;DHT22;33997;53.278;9.708;2022-08-24T06:02:17;18.10;79.90
48208;DHT22;33997;53.278;9.708;2022-08-24T06:04:43;18.20;79.90
48208;DHT22;33997;53.278;9.708;2022-08-24T06:07:10;18.30;79.60
48208;DHT22;33997;53.278;9.708;2022-08-24T06:09:36;18.40;79.20
48208;DHT22;33997;53.278;9.708;2022-08-24T06:12:02;18.40;79.10
48208;DHT22;33997;53.278;9.708;2022-08-24T06:14:28;18.50;79.20
48208;DHT22;33997;53.278;9.708;2022-08-24T06:16:53;18.60;79.10
48208;DHT22;33997;53.278;9.708;2022-08-24T06:19:19;18.70;78.90
48208;DHT22;33997;53.278;9.708;2022-08-24T06:21:47;18.70;78.50
48208;DHT22;33997;53.278;9.708;2022-08-24T06:24:13;18.80;77.90
48208;DHT22;33997;53.278;9.708;2022-08-24T06:26:40;18.90;77.80
48208;DHT22;33997;53.278;9.708;2022-08-24T06:29:24;19.00;77.50
48208;DHT22;33997;53.278;9.708;2022-08-24T06:31:50;19.00;77.20
48208;DHT22;33997;53.278;9.708;2022-08-24T06:34:17;19.10;76.90
48208;DHT22;33997;53.278;9.708;2022-08-24T06:36:43;19.30;76.70
48208;DHT22;33997;53.278;9.708;2022-08-24T06:39:09;19.40;76.60
48208;DHT22;33997;53.278;9.708;2022-08-24T06:41:38;19.50;76.30
48208;DHT22;33997;53.278;9.708;2022-08-24T06:44:05;19.60;76.90
48208;DHT22;33997;53.278;9.708;2022-08-24T06:46:31;19.60;76.10
48208;DHT22;33997;53.278;9.708;2022-08-24T06:48:57;19.80;75.90
48208;DHT22;33997;53.278;9.708;2022-08-24T06:51:23;19.80;74.70
48208;DHT22;33997;53.278;9.708;2022-08-24T06:53:50;20.00;75.30
48208;DHT22;33997;53.278;9.708;2022-08-24T06:56:16;20.00;75.50
48208;DHT22;33997;53.278;9.708;2022-08-24T06:58:42;20.10;74.60
48208;DHT22;33997;53.278;9.708;2022-08-24T07:01:16;20.20;74.00
48208;DHT22;33997;53.278;9.708;2022-08-24T07:03:43;20.30;73.90
48208;DHT22;33997;53.278;9.708;2022-08-24T07:06:09;20.30;74.20
48208;DHT22;33997;53.278;9.708;2022-08-24T07:08:37;20.50;74.10
48208;DHT22;33997;53.278;9.708;2022-08-24T07:11:03;20.50;73.20
48208;DHT22;33997;53.278;9.708;2022-08-24T07:13:30;20.70;73.00
48208;DHT22;33997;53.278;9.708;2022-08-24T07:15:56;20.80;72.70
48208;DHT22;33997;53.278;9.708;2022-08-24T07:18:22;21.00;72.00
48208;DHT22;33997;53.278;9.708;2022-08-24T07:20:49;21.10;71.40
48208;DHT22;33997;53.278;9.708;2022-08-24T07:23:16;21.20;71.80
48208;DHT22;33997;53.278;9.708;2022-08-24T07:25:43;21.30;71.10
48208;DHT22;33997;53.278;9.708;2022-08-24T07:28:09;21.40;70.80
48208;DHT22;33997;53.278;9.708;2022-08-24T07:30:36;21.50;70.60
48208;DHT22;33997;53.278;9.708;2022-08-24T07:33:02;21.60;70.50
48208;DHT22;33997;53.278;9.708;2022-08-24T07:35:29;21.90;69.70
48208;DHT22;33997;53.278;9.708;2022-08-24T07:37:55;22.00;69.70
48208;DHT22;33997;53.278;9.708;2022-08-24T07:40:22;22.10;68.00
48208;DHT22;33997;53.278;9.708;2022-08-24T07:42:49;22.20;68.00
48208;DHT22;33997;53.278;9.708;2022-08-24T07:45:15;22.50;67.60
48208;DHT22;33997;53.278;9.708;2022-08-24T07:47:41;22.50;67.40
48208;DHT22;33997;53.278;9.708;2022-08-24T07:50:08;22.70;67.40
48208;DHT22;33997;53.278;9.708;2022-08-24T07:52:33;22.90;65.50
48208;DHT22;33997;53.278;9.708;2022-08-24T07:54:59;22.90;65.10
48208;DHT22;33997;53.278;9.708;2022-08-24T07:57:25;23.10;64.90
48208;DHT22;33997;53.278;9.708;2022-08-24T07:59:51;23.20;64.60
48208;DHT22;33997;53.278;9.708;2022-08-24T08:02:17;23.50;64.50
48208;DHT22;33997;53.278;9.708;2022-08-24T08:04:42;23.70;62.70
48208;DHT22;33997;53.278;9.708;2022-08-24T08:07:08;23.80;61.50
48208;DHT22;33997;53.278;9.708;2022-08-24T08:09:37;23.90;62.00
48208;DHT22;33997;53.278;9.708;2022-08-24T08:12:03;24.10;62.50
48208;DHT22;33997;53.278;9.708;2022-08-24T08:14:29;24.30;62.00
48208;DHT22;33997;53.278;9.708;2022-08-24T08:16:54;24.60;61.50
48208;DHT22;33997;53.278;9.708;2022-08-24T08:19:20;24.60;60.80
48208;DHT22;33997;53.278;9.708;2022-08-24T08:21:48;24.80;58.90
48208;DHT22;33997;53.278;9.708;2022-08-24T08:24:33;25.00;57.10
48208;DHT22;33997;53.278;9.708;2022-08-24T08:26:59;25.00;57.20
48208;DHT22;33997;53.278;9.708;2022-08-24T08:29:25;25.00;57.20
48208;DHT22;33997;53.278;9.708;2022-08-24T08:31:51;25.00;56.70
48208;DHT22;33997;53.278;9.708;2022-08-24T08:34:17;25.10;56.00
48208;DHT22;33997;53.278;9.708;2022-08-24T08:36:43;25.50;56.20
48208;DHT22;33997;53.278;9.708;2022-08-24T08:39:11;25.50;54.60
48208;DHT22;33997;53.278;9.708;2022-08-24T08:47:38;25.70;53.90
48208;DHT22;33997;53.278;9.708;2022-08-24T08:50:17;26.10;54.50
48208;DHT22;33997;53.278;9.708;2022-08-24T08:53:24;26.30;52.80
48208;DHT22;33997;53.278;9.708;2022-08-24T08:56:12;26.10;52.70
48208;DHT22;33997;53.278;9.708;2022-08-24T08:58:57;26.20;52.70
48208;DHT22;33997;53.278;9.708;2022-08-24T09:01:40;25.90;52.70
48208;DHT22;33997;53.278;9.708;2022-08-24T09:09:53;26.50;51.80
48208;DHT22;33997;53.278;9.708;2022-08-24T09:12:44;26.70;50.30
48208;DHT22;33997;53.278;9.708;2022-08-24T09:15:44;26.50;50.60
48208;DHT22;33997;53.278;9.708;2022-08-24T09:24:31;27.40;50.60
48208;DHT22;33997;53.278;9.708;2022-08-24T09:27:20;27.70;48.60
48208;DHT22;33997;53.278;9.708;2022-08-24T09:35:04;28.10;45.40
48208;DHT22;33997;53.278;9.708;2022-08-24T09:46:59;27.60;46.60
48208;DHT22;33997;53.278;9.708;2022-08-24T09:52:10;28.40;44.70
48208;DHT22;33997;53.278;9.708;2022-08-24T10:00:37;28.80;44.50
48208;DHT22;33997;53.278;9.708;2022-08-24T10:03:25;28.80;42.60
48208;DHT22;33997;53.278;9.708;2022-08-24T10:06:21;28.90;43.80
48208;DHT22;33997;53.278;9.708;2022-08-24T10:09:00;29.10;43.20
48208;DHT22;33997;53.278;9.708;2022-08-24T10:14:44;29.50;43.90
48208;DHT22;33997;53.278;9.708;2022-08-24T10:25:10;29.30;42.40
48208;DHT22;33997;53.278;9.708;2022-08-24T10:33:34;29.50;41.20
48208;DHT22;33997;53.278;9.708;2022-08-24T10:39:35;29.50;41.70
48208;DHT22;33997;53.278;9.708;2022-08-24T10:53:51;30.90;40.40
48208;DHT22;33997;53.278;9.708;2022-08-24T10:59:17;31.20;39.90
48208;DHT22;33997;53.278;9.708;2022-08-24T11:04:29;31.20;39.10
48208;DHT22;33997;53.278;9.708;2022-08-24T11:09:59;31.60;36.60
48208;DHT22;33997;53.278;9.708;2022-08-24T11:12:31;31.60;36.90
48208;DHT22;33997;53.278;9.708;2022-08-24T11:15:00;32.00;36.90
48208;DHT22;33997;53.278;9.708;2022-08-24T11:17:29;31.70;37.20
48208;DHT22;33997;53.278;9.708;2022-08-24T11:19:55;32.00;36.80
48208;DHT22;33997;53.278;9.708;2022-08-24T11:22:40;32.30;36.80
48208;DHT22;33997;53.278;9.708;2022-08-24T11:25:25;32.00;37.50
48208;DHT22;33997;53.278;9.708;2022-08-24T11:27:58;31.30;36.00
48208;DHT22;33997;53.278;9.708;2022-08-24T11:30:28;31.50;37.30
48208;DHT22;33997;53.278;9.708;2022-08-24T11:32:57;32.10;35.30
48208;DHT22;33997;53.278;9.708;2022-08-24T11:38:19;32.50;35.10
48208;DHT22;33997;53.278;9.708;2022-08-24T11:41:02;32.10;36.30
48208;DHT22;33997;53.278;9.708;2022-08-24T11:43:42;32.20;35.30
48208;DHT22;33997;53.278;9.708;2022-08-24T11:49:10;33.20;35.30
48208;DHT22;33997;53.278;9.708;2022-08-24T11:51:45;32.90;34.10
48208;DHT22;33997;53.278;9.708;2022-08-24T11:54:18;33.50;33.80
48208;DHT22;33997;53.278;9.708;2022-08-24T11:57:05;32.90;33.40
48208;DHT22;33997;53.278;9.708;2022-08-24T11:59:42;33.70;31.90
48208;DHT22;33997;53.278;9.708;2022-08-24T12:13:24;33.70;32.70
48208;DHT22;33997;53.278;9.708;2022-08-24T12:18:50;33.60;30.90
48208;DHT22;33997;53.278;9.708;2022-08-24T12:21:21;34.50;31.10
48208;DHT22;33997;53.278;9.708;2022-08-24T12:23:59;33.90;31.40
48208;DHT22;33997;53.278;9.708;2022-08-24T12:26:37;34.10;32.00
48208;DHT22;33997;53.278;9.708;2022-08-24T12:29:41;34.20;30.10
48208;DHT22;33997;53.278;9.708;2022-08-24T12:34:59;34.70;30.10
48208;DHT22;33997;53.278;9.708;2022-08-24T12:37:34;35.20;30.00
48208;DHT22;33997;53.278;9.708;2022-08-24T12:40:20;35.00;30.30
48208;DHT22;33997;53.278;9.708;2022-08-24T12:43:06;34.90;29.30
48208;DHT22;33997;53.278;9.708;2022-08-24T12:45:36;33.90;30.70
48208;DHT22;33997;53.278;9.708;2022-08-24T12:50:39;35.20;30.90
48208;DHT22;33997;53.278;9.708;2022-08-24T12:56:30;35.60;29.40
48208;DHT22;33997;53.278;9.708;2022-08-24T12:59:06;36.40;29.50
48208;DHT22;33997;53.278;9.708;2022-08-24T13:01:54;36.10;29.80
48208;DHT22;33997;53.278;9.708;2022-08-24T13:09:37;35.90;27.70
48208;DHT22;33997;53.278;9.708;2022-08-24T13:17:43;36.60;27.40
48208;DHT22;33997;53.278;9.708;2022-08-24T13:21:06;36.30;27.80
48208;DHT22;33997;53.278;9.708;2022-08-24T13:28:13;36.70;29.40
48208;DHT22;33997;53.278;9.708;2022-08-24T13:42:39;36.40;28.10
48208;DHT22;33997;53.278;9.708;2022-08-24T13:45:22;37.40;27.60
48208;DHT22;33997;53.278;9.708;2022-08-24T13:48:09;37.10;28.70
48208;DHT22;33997;53.278;9.708;2022-08-24T13:51:41;37.80;27.70
48208;DHT22;33997;53.278;9.708;2022-08-24T13:53:40;38.40;27.30
48208;DHT22;33997;53.278;9.708;2022-08-24T13:56:20;37.30;29.30
48208;DHT22;33997;53.278;9.708;2022-08-24T13:59:07;37.70;28.40
48208;DHT22;33997;53.278;9.708;2022-08-24T14:12:25;38.60;28.20
48208;DHT22;33997;53.278;9.708;2022-08-24T14:15:25;37.70;28.50
48208;DHT22;33997;53.278;9.708;2022-08-24T14:18:25;38.70;27.50
48208;DHT22;33997;53.278;9.708;2022-08-24T14:21:12;38.00;27.00
48208;DHT22;33997;53.278;9.708;2022-08-24T14:24:10;38.20;26.90
48208;DHT22;33997;53.278;9.708;2022-08-24T14:37:44;38.90;26.70
48208;DHT22;33997;53.278;9.708;2022-08-24T14:40:33;37.60;28.40
48208;DHT22;33997;53.278;9.708;2022-08-24T14:43:18;37.40;27.60
48208;DHT22;33997;53.278;9.708;2022-08-24T14:48:45;38.40;26.10
48208;DHT22;33997;53.278;9.708;2022-08-24T15:00:18;39.00;27.00
48208;DHT22;33997;53.278;9.708;2022-08-24T15:08:05;39.20;25.80
48208;DHT22;33997;53.278;9.708;2022-08-24T15:13:28;38.50;26.20
48208;DHT22;33997;53.278;9.708;2022-08-24T15:29:17;38.40;26.30
48208;DHT22;33997;53.278;9.708;2022-08-24T15:31:59;38.30;26.70
48208;DHT22;33997;53.278;9.708;2022-08-24T15:36:59;37.90;26.50
48208;DHT22;33997;53.278;9.708;2022-08-24T15:39:27;38.60;26.10
48208;DHT22;33997;53.278;9.708;2022-08-24T15:41:53;38.70;26.70
48208;DHT22;33997;53.278;9.708;2022-08-24T15:44:22;38.70;25.90
48208;DHT22;33997;53.278;9.708;2022-08-24T15:46:50;37.00;28.30
48208;DHT22;33997;53.278;9.708;2022-08-24T15:51:52;37.80;28.00
48208;DHT22;33997;53.278;9.708;2022-08-24T15:56:50;37.10;28.30
48208;DHT22;33997;53.278;9.708;2022-08-24T16:05:18;37.70;27.80
48208;DHT22;33997;53.278;9.708;2022-08-24T16:10:32;36.90;29.20
48208;DHT22;33997;53.278;9.708;2022-08-24T16:16:10;37.20;28.60
48208;DHT22;33997;53.278;9.708;2022-08-24T16:18:53;37.70;28.90
48208;DHT22;33997;53.278;9.708;2022-08-24T16:24:12;37.60;30.70
48208;DHT22;33997;53.278;9.708;2022-08-24T16:29:50;37.70;29.70
48208;DHT22;33997;53.278;9.708;2022-08-24T16:32:21;37.60;29.30
48208;DHT22;33997;53.278;9.708;2022-08-24T16:34:53;36.70;30.90
48208;DHT22;33997;53.278;9.708;2022-08-24T16:37:20;36.20;31.00
48208;DHT22;33997;53.278;9.708;2022-08-24T16:39:46;35.30;31.60
48208;DHT22;33997;53.278;9.708;2022-08-24T16:42:21;35.50;32.10
48208;DHT22;33997;53.278;9.708;2022-08-24T16:44:48;35.20;31.70
48208;DHT22;33997;53.278;9.708;2022-08-24T16:47:14;34.90;31.80
48208;DHT22;33997;53.278;9.708;2022-08-24T16:49:39;35.60;32.10
48208;DHT22;33997;53.278;9.708;2022-08-24T16:52:06;35.80;30.60
48208;DHT22;33997;53.278;9.708;2022-08-24T16:54:31;35.40;31.40
48208;DHT22;33997;53.278;9.708;2022-08-24T16:56:59;35.20;31.80
48208;DHT22;33997;53.278;9.708;2022-08-24T16:59:30;35.20;31.40
48208;DHT22;33997;53.278;9.708;2022-08-24T17:01:57;34.40;31.80
48208;DHT22;33997;53.278;9.708;2022-08-24T17:04:23;34.40;32.40
48208;DHT22;33997;53.278;9.708;2022-08-24T17:06:48;34.30;33.00
48208;DHT22;33997;53.278;9.708;2022-08-24T17:09:15;33.90;33.30
48208;DHT22;33997;53.278;9.708;2022-08-24T17:11:41;33.50;33.90
48208;DHT22;33997;53.278;9.708;2022-08-24T17:14:07;33.10;34.40
48208;DHT22;33997;53.278;9.708;2022-08-24T17:16:34;32.70;35.20
48208;DHT22;33997;53.278;9.708;2022-08-24T17:19:09;32.00;35.50
48208;DHT22;33997;53.278;9.708;2022-08-24T17:21:37;31.40;37.40
48208;DHT22;33997;53.278;9.708;2022-08-24T17:24:03;31.10;37.10
48208;DHT22;33997;53.278;9.708;2022-08-24T17:26:29;30.20;38.60
48208;DHT22;33997;53.278;9.708;2022-08-24T17:28:55;29.70;40.10
48208;DHT22;33997;53.278;9.708;2022-08-24T17:31:21;29.50;40.40
48208;DHT22;33997;53.278;9.708;2022-08-24T17:33:49;29.20;40.80
48208;DHT22;33997;53.278;9.708;2022-08-24T17:36:16;28.80;41.90
48208;DHT22;33997;53.278;9.708;2022-08-24T17:38:44;28.60;42.50
48208;DHT22;33997;53.278;9.708;2022-08-24T17:41:11;28.30;44.20
48208;DHT22;33997;53.278;9.708;2022-08-24T17:43:37;28.00;43.70
48208;DHT22;33997;53.278;9.708;2022-08-24T17:46:03;27.80;43.90
48208;DHT22;33997;53.278;9.708;2022-08-24T17:48:28;27.60;46.60
48208;DHT22;33997;53.278;9.708;2022-08-24T17:50:54;27.40;44.00
48208;DHT22;33997;53.278;9.708;2022-08-24T17:53:20;27.10;44.70
48208;DHT22;33997;53.278;9.708;2022-08-24T17:55:46;27.00;44.50
48208;DHT22;33997;53.278;9.708;2022-08-24T17:58:13;26.80;44.80
48208;DHT22;33997;53.278;9.708;2022-08-24T18:00:39;26.70;45.70
48208;DHT22;33997;53.278;9.708;2022-08-24T18:03:04;26.50;45.70
48208;DHT22;33997;53.278;9.708;2022-08-24T18:05:31;26.40;44.90
48208;DHT22;33997;53.278;9.708;2022-08-24T18:07:58;26.30;45.30
48208;DHT22;33997;53.278;9.708;2022-08-24T18:10:26;26.10;46.10
48208;DHT22;33997;53.278;9.708;2022-08-24T18:12:57;26.00;46.00
48208;DHT22;33997;53.278;9.708;2022-08-24T18:15:23;25.90;46.00
48208;DHT22;33997;53.278;9.708;2022-08-24T18:17:51;25.80;46.30
48208;DHT22;33997;53.278;9.708;2022-08-24T18:20:21;25.70;47.10
48208;DHT22;33997;53.278;9.708;2022-08-24T18:22:49;25.50;47.90
48208;DHT22;33997;53.278;9.708;2022-08-24T18:25:15;25.40;47.70
48208;DHT22;33997;53.278;9.708;2022-08-24T18:27:43;25.30;48.50
48208;DHT22;33997;53.278;9.708;2022-08-24T18:30:25;25.20;48.20
48208;DHT22;33997;53.278;9.708;2022-08-24T18:32:51;25.10;48.30
48208;DHT22;33997;53.278;9.708;2022-08-24T18:35:17;25.00;48.80
48208;DHT22;33997;53.278;9.708;2022-08-24T18:37:43;25.00;49.20
48208;DHT22;33997;53.278;9.708;2022-08-24T18:40:09;24.90;49.20
48208;DHT22;33997;53.278;9.708;2022-08-24T18:42:36;24.70;49.70
48208;DHT22;33997;53.278;9.708;2022-08-24T18:45:03;24.60;49.60
48208;DHT22;33997;53.278;9.708;2022-08-24T18:47:28;24.60;49.70
48208;DHT22;33997;53.278;9.708;2022-08-24T18:49:54;24.50;50.00
48208;DHT22;33997;53.278;9.708;2022-08-24T18:52:20;24.40;50.70
48208;DHT22;33997;53.278;9.708;2022-08-24T18:54:47;24.30;51.00
48208;DHT22;33997;53.278;9.708;2022-08-24T18:57:13;24.10;51.20
48208;DHT22;33997;53.278;9.708;2022-08-24T18:59:40;24.00;51.00
48208;DHT22;33997;53.278;9.708;2022-08-24T19:02:10;24.00;51.20
48208;DHT22;33997;53.278;9.708;2022-08-24T19:04:57;24.00;51.00
48208;DHT22;33997;53.278;9.708;2022-08-24T19:07:23;23.90;51.50
48208;DHT22;33997;53.278;9.708;2022-08-24T19:09:49;23.90;51.70
48208;DHT22;33997;53.278;9.708;2022-08-24T19:12:15;23.80;51.00
48208;DHT22;33997;53.278;9.708;2022-08-24T19:14:41;23.80;51.10
48208;DHT22;33997;53.278;9.708;2022-08-24T19:17:07;23.70;51.20
48208;DHT22;33997;53.278;9.708;2022-08-24T19:19:32;23.70;52.50
48208;DHT22;33997;53.278;9.708;2022-08-24T19:21:58;23.70;51.30
48208;DHT22;33997;53.278;9.708;2022-08-24T19:24:26;23.60;51.30